Data for 03/30/2014

Time Sea-Level Adjusted Pressure Absolute Pressure Temperature Relative Humidity Dew Point   
(mb) (inHg) (mb) (inHg) (C) (F) (%) (C) (F)
00:05 1011 29.85 840 24.81 2 35.6 79 -1.3 29.7
00:10 1011 29.85 840 24.81 2 35.6 79 -1.3 29.7
00:15 1011 29.85 840 24.81 2 35.6 79 -1.3 29.7
00:20 1011 29.85 840 24.81 2 35.6 77 -1.5 29.2
00:25 1011 29.85 840 24.81 2.1 35.7 78 -1.4 29.5
00:30 1011 29.85 840 24.81 2 35.6 79 -1.3 29.7
00:35 1011 29.85 840 24.81 1.9 35.4 79 -1.3 29.6
00:40 1011 29.85 840 24.81 1.8 35.3 79 -1.4 29.5
00:45 1011 29.85 840 24.81 1.8 35.3 80 -1.2 29.8
00:50 1011 29.85 840 24.81 1.9 35.4 80 -1.2 29.8
00:55 1011 29.85 840 24.81 2 35.5 79 -1.3 29.7
01:00 1011 29.85 840 24.81 1.8 35.2 83 -0.9 30.5
01:05 1011 29.85 840 24.81 1.4 34.4 84 -1 30.2
01:10 1011 29.85 840 24.81 1.2 34.2 84 -1.2 29.9
01:15 1011 29.85 840 24.81 1.2 34.2 86 -0.9 30.4
01:20 1011 29.85 840 24.81 1.2 34.1 86 -0.9 30.4
01:25 1011 29.85 840 24.81 1.1 34 86 -0.9 30.3
01:30 1011 29.85 840 24.81 1 33.8 87 -0.9 30.4
01:35 1011 29.85 840 24.81 1 33.7 87 -1 30.2
01:40 1011 29.85 840 24.81 1 33.7 86 -1 30.1
01:45 1010 29.83 840 24.81 1 33.9 86 -1 30.2
01:50 1010 29.83 840 24.81 1.1 34 86 -1 30.2
01:55 1010 29.83 840 24.81 1.3 34.3 85 -1 30.3
02:00 1010 29.83 840 24.81 1.3 34.4 85 -0.9 30.3
02:05 1010 29.83 840 24.81 1.4 34.6 84 -0.9 30.3
02:10 1010 29.83 840 24.81 1.4 34.6 84 -0.9 30.3
02:15 1010 29.83 839 24.78 1.3 34.3 84 -1 30.1
02:20 1010 29.83 839 24.78 1.3 34.4 84 -1.1 30.1
02:25 1010 29.83 839 24.78 1.5 34.7 84 -1 30.2
02:30 1010 29.83 839 24.78 1.3 34.4 84 -1 30.1
02:35 1010 29.83 839 24.78 1.1 33.9 86 -1 30.2
02:40 1010 29.83 839 24.78 0.7 33.2 88 -1.1 30
02:45 1010 29.83 839 24.78 0.7 33.2 86 -1.4 29.5
02:50 1010 29.83 839 24.78 0.9 33.6 85 -1.4 29.5
02:55 1010 29.83 839 24.78 0.9 33.6 85 -1.4 29.5
03:00 1010 29.83 839 24.78 0.8 33.5 85 -1.4 29.6
03:05 1010 29.83 839 24.78 0.7 33.3 86 -1.4 29.5
03:10 1010 29.83 839 24.78 0.7 33.2 86 -1.4 29.5
03:15 1010 29.83 839 24.78 0.7 33.2 86 -1.4 29.5
03:20 1010 29.83 839 24.78 0.7 33.3 86 -1.4 29.4
03:25 1010 29.83 839 24.78 0.7 33.3 86 -1.4 29.6
03:30 1010 29.83 839 24.78 0.7 33.2 86 -1.3 29.6
03:35 1010 29.83 839 24.78 0.7 33.3 86 -1.3 29.6
03:40 1010 29.83 839 24.78 0.7 33.3 86 -1.4 29.6
03:45 1010 29.83 839 24.78 0.7 33.3 85 -1.4 29.4
03:50 1010 29.83 839 24.78 0.8 33.5 85 -1.5 29.3
03:55 1010 29.83 839 24.78 0.8 33.5 85 -1.4 29.4
04:00 1009 29.8 839 24.78 0.8 33.5 84 -1.5 29.3
04:05 1009 29.8 839 24.78 0.8 33.5 84 -1.6 29.1
04:10 1009 29.8 839 24.78 0.9 33.6 84 -1.6 29.1
04:15 1009 29.8 839 24.78 0.9 33.7 83 -1.7 29
04:20 1009 29.8 839 24.78 1 33.8 82 -1.7 28.9
04:25 1009 29.8 838 24.75 1.1 33.9 82 -1.7 28.9
04:30 1009 29.8 838 24.75 1.1 34 81 -1.8 28.8
04:35 1009 29.8 838 24.75 1.2 34.1 81 -1.8 28.8
04:40 1009 29.8 838 24.75 1.2 34.1 81 -1.7 28.9
04:45 1009 29.8 838 24.75 1.1 34 82 -1.7 29
04:50 1009 29.8 839 24.78 1.1 33.9 82 -1.7 29
04:55 1009 29.8 838 24.75 1 33.7 82 -1.8 28.8
05:00 1009 29.8 839 24.78 1 33.8 81 -1.9 28.5
05:05 1009 29.8 839 24.78 1.1 34 80 -1.9 28.5
05:10 1009 29.8 839 24.78 1.1 33.9 81 -1.8 28.7
05:15 1009 29.8 838 24.75 1 33.8 81 -1.8 28.7
05:20 1009 29.8 838 24.75 1 33.9 81 -1.9 28.5
05:25 1009 29.8 839 24.78 1.2 34.1 80 -1.9 28.5
05:30 1009 29.8 839 24.78 1.2 34.2 80 -1.8 28.7
05:35 1009 29.8 838 24.75 1.1 34.1 80 -1.9 28.7
05:40 1009 29.8 838 24.75 1.1 34 80 -1.9 28.5
05:45 1009 29.8 838 24.75 1.1 34 81 -1.9 28.6
05:50 1009 29.8 838 24.75 1.1 34 80 -2 28.4
05:55 1009 29.8 838 24.75 1.2 34.1 81 -1.8 28.7
06:00 1009 29.8 838 24.75 1.1 33.9 80 -1.9 28.5
06:05 1009 29.8 838 24.75 1.2 34.1 80 -1.9 28.7
06:10 1009 29.8 838 24.75 1.2 34.1 80 -2 28.5
06:15 1009 29.8 838 24.75 1.1 34 81 -1.8 28.8
06:20 1009 29.8 838 24.75 1 33.8 81 -1.9 28.6
06:25 1009 29.8 839 24.78 1 33.8 81 -1.9 28.6
06:30 1009 29.8 839 24.78 1.1 34 81 -1.9 28.6
06:35 1009 29.8 839 24.78 1.1 33.9 81 -1.8 28.8
06:40 1009 29.8 839 24.78 1.1 33.9 80 -2 28.5
06:45 1009 29.8 839 24.78 1.3 34.4 80 -1.8 28.7
06:50 1009 29.8 839 24.78 1.3 34.4 81 -1.6 29.2
06:55 1009 29.8 839 24.78 1.3 34.4 82 -1.5 29.4
07:00 1009 29.8 839 24.78 1.3 34.4 82 -1.4 29.5
07:05 1009 29.8 839 24.78 1.4 34.5 82 -1.3 29.7
07:10 1009 29.8 839 24.78 1.4 34.5 82 -1.3 29.6
07:15 1009 29.8 839 24.78 1.4 34.5 83 -1.2 29.8
07:20 1009 29.8 839 24.78 1.4 34.5 83 -1.2 29.8
07:25 1009 29.8 838 24.75 1.3 34.4 84 -1.1 30.1
07:30 1009 29.8 838 24.75 1.3 34.3 85 -1 30.2
07:35 1009 29.8 838 24.75 1.3 34.3 86 -0.8 30.5
07:40 1009 29.8 838 24.75 1.3 34.3 86 -0.7 30.7
07:45 1009 29.8 838 24.75 1.3 34.4 87 -0.7 30.8
07:50 1009 29.8 838 24.75 1.3 34.4 87 -0.5 31
07:55 1009 29.8 838 24.75 1.4 34.4 87 -0.5 31
08:00 1009 29.8 838 24.75 1.4 34.5 88 -0.4 31.3
08:05 1009 29.8 838 24.75 1.5 34.7 88 -0.3 31.5
08:10 1009 29.8 838 24.75 1.6 34.8 87 -0.3 31.4
08:15 1009 29.8 838 24.75 1.5 34.7 88 -0.2 31.6
08:20 1009 29.8 838 24.75 1.5 34.7 89 -0.2 31.7
08:25 1009 29.8 838 24.75 1.5 34.7 89 -0.1 31.8
08:30 1009 29.8 838 24.75 1.5 34.7 89 -0.1 31.9
08:35 1009 29.8 838 24.75 1.5 34.7 89 -0.1 31.8
08:40 1009 29.8 838 24.75 1.3 34.4 90 -0.1 31.7
08:45 1009 29.8 838 24.75 1 33.8 91 -0.4 31.4
08:50 1009 29.8 838 24.75 0.8 33.4 92 -0.5 31.2
08:55 1009 29.8 838 24.75 0.5 33 93 -0.5 31.1
09:00 1009 29.8 838 24.75 0.4 32.8 93 -0.5 31.1
09:05 1009 29.8 838 24.75 0.5 32.9 93 -0.5 31.2
09:10 1009 29.8 838 24.75 0.5 33 94 -0.4 31.3
09:15 1009 29.8 838 24.75 0.7 33.2 93 -0.3 31.5
09:20 1009 29.8 838 24.75 0.7 33.3 92 -0.4 31.3
09:25 1009 29.8 838 24.75 0.6 33 93 -0.4 31.2
09:30 1009 29.8 838 24.75 0.5 33 93 -0.4 31.3
09:35 1009 29.8 838 24.75 0.6 33.1 93 -0.4 31.3
09:40 1009 29.8 838 24.75 0.6 33.1 93 -0.4 31.3
09:45 1009 29.8 838 24.75 0.7 33.3 93 -0.3 31.5
09:50 1009 29.8 838 24.75 0.8 33.4 93 -0.2 31.7
09:55 1009 29.8 838 24.75 0.9 33.7 93 -0.1 31.8
10:00 1009 29.8 838 24.75 1.1 34 92 -0 32
10:05 1009 29.8 838 24.75 1.2 34.2 92 0.1 32.2
10:10 1009 29.8 838 24.75 1.3 34.3 92 0.1 32.3
10:15 1009 29.8 838 24.75 1.3 34.3 91 -0 32
10:20 1009 29.8 838 24.75 1.1 34 92 -0 32
10:25 1009 29.8 838 24.75 1.1 34 92 -0 31.9
10:30 1009 29.8 838 24.75 1 33.8 92 -0.1 31.8
10:35 1009 29.8 838 24.75 1 33.7 93 -0.1 31.8
10:40 1009 29.8 838 24.75 0.9 33.7 93 -0.1 31.8
10:45 1009 29.8 838 24.75 0.9 33.7 93 -0.1 31.8
10:50 1009 29.8 838 24.75 1 33.8 93 -0 31.9
10:55 1009 29.8 838 24.75 1 33.8 93 -0.1 31.9
11:00 1009 29.8 838 24.75 1 33.8 93 -0.1 31.8
11:05 1009 29.8 838 24.75 0.9 33.6 92 -0.2 31.7
11:10 1008 29.77 838 24.75 0.8 33.5 93 -0.2 31.6
11:15 1008 29.77 838 24.75 0.8 33.4 93 -0.3 31.5
11:20 1008 29.77 838 24.75 0.6 33.1 93 -0.4 31.3
11:25 1008 29.77 838 24.75 0.5 32.8 94 -0.4 31.2
11:30 1008 29.77 838 24.75 0.4 32.8 94 -0.4 31.2
11:35 1008 29.77 838 24.75 0.5 32.9 94 -0.3 31.4
11:40 1008 29.77 838 24.75 0.5 32.9 94 -0.4 31.4
11:45 1008 29.77 838 24.75 0.5 32.8 95 -0.3 31.5
11:50 1008 29.77 838 24.75 0.5 32.9 95 -0.3 31.5
11:55 1008 29.77 838 24.75 0.5 32.9 95 -0.2 31.6
12:00 1009 29.8 838 24.75 0.6 33 95 -0.2 31.7
12:05 1009 29.8 838 24.75 0.6 33.1 95 -0.1 31.8
12:10 1009 29.8 838 24.75 0.9 33.6 95 0.1 32.2
12:15 1008 29.77 838 24.75 1 33.8 93 -0 32
12:20 1008 29.77 838 24.75 1 33.8 93 0.1 32.1
12:25 1008 29.77 838 24.75 1.1 34 92 -0 32
12:30 1008 29.77 838 24.75 1.2 34.2 92 0 32.1
12:35 1008 29.77 838 24.75 1.4 34.5 91 0.1 32.2
12:40 1008 29.77 838 24.75 1.5 34.6 90 0.1 32.1
12:45 1009 29.8 838 24.75 1.4 34.4 91 -0 32
12:50 1009 29.8 838 24.75 1.3 34.4 91 -0 31.9
12:55 1009 29.8 838 24.75 1.3 34.3 91 0 32
13:00 1009 29.8 838 24.75 1.3 34.4 90 -0.1 31.9
13:05 1009 29.8 838 24.75 1.5 34.7 91 0.2 32.3
13:10 1009 29.8 838 24.75 1.9 35.5 90 0.5 32.8
13:15 1009 29.8 838 24.75 1.9 35.3 90 0.4 32.8
13:20 1009 29.8 838 24.75 1.8 35.2 90 0.3 32.5
13:25 1009 29.8 838 24.75 1.8 35.2 89 0.2 32.3
13:30 1009 29.8 838 24.75 1.9 35.4 90 0.4 32.7
13:35 1009 29.8 838 24.75 1.9 35.4 89 0.3 32.6
13:40 1009 29.8 838 24.75 1.5 34.7 89 -0 31.9
13:45 1009 29.8 838 24.75 1.1 33.9 91 -0.2 31.7
13:50 1009 29.8 838 24.75 0.9 33.7 92 -0.2 31.6
13:55 1009 29.8 838 24.75 1 33.8 92 -0.2 31.7
14:00 1009 29.8 838 24.75 1.2 34.1 88 -0.5 31.1
14:05 1009 29.8 838 24.75 1.5 34.7 85 -0.8 30.5
14:10 1009 29.8 838 24.75 1.7 35 83 -0.9 30.4
14:15 1009 29.8 838 24.75 1.7 35 84 -0.8 30.6
14:20 1009 29.8 838 24.75 1.7 35 85 -0.5 31.1
14:25 1009 29.8 838 24.75 1.9 35.4 86 -0.3 31.5
14:30 1009 29.8 838 24.75 2 35.6 85 -0.3 31.4
14:35 1009 29.8 838 24.75 2.1 35.7 81 -0.8 30.6
14:40 1009 29.8 838 24.75 1.9 35.5 83 -0.6 31
14:45 1009 29.8 838 24.75 1.8 35.2 84 -0.7 30.8
14:50 1009 29.8 838 24.75 1.7 35.1 84 -0.7 30.8
14:55 1009 29.8 838 24.75 1.4 34.5 87 -0.6 30.9
15:00 1009 29.8 838 24.75 1.3 34.3 87 -0.6 30.9
15:05 1009 29.8 838 24.75 1.4 34.6 84 -1 30.2
15:10 1009 29.8 838 24.75 1.4 34.5 88 -0.4 31.2
15:15 1009 29.8 838 24.75 1.1 33.9 90 -0.3 31.4
15:20 1009 29.8 839 24.78 0.8 33.4 92 -0.4 31.3
15:25 1009 29.8 839 24.78 0.7 33.3 93 -0.3 31.4
15:30 1009 29.8 839 24.78 0.8 33.4 93 -0.3 31.5
15:35 1009 29.8 839 24.78 0.7 33.3 93 -0.3 31.4
15:40 1009 29.8 839 24.78 0.7 33.2 93 -0.3 31.4
15:45 1009 29.8 839 24.78 0.6 33.1 93 -0.3 31.4
15:50 1009 29.8 839 24.78 0.7 33.2 93 -0.3 31.4
15:55 1009 29.8 839 24.78 0.6 33.1 93 -0.3 31.4
16:00 1010 29.83 839 24.78 0.6 33.1 93 -0.4 31.3
16:05 1010 29.83 839 24.78 0.6 33 93 -0.4 31.3
16:10 1010 29.83 839 24.78 0.5 33 94 -0.4 31.3
16:15 1010 29.83 839 24.78 0.5 32.9 94 -0.4 31.3
16:20 1010 29.83 839 24.78 0.5 32.9 94 -0.4 31.4
16:25 1010 29.83 839 24.78 0.5 33 94 -0.4 31.4
16:30 1010 29.83 839 24.78 0.6 33.1 94 -0.3 31.4
16:35 1010 29.83 839 24.78 0.7 33.2 94 -0.3 31.5
16:40 1010 29.83 839 24.78 0.8 33.4 93 -0.3 31.5
16:45 1010 29.83 839 24.78 0.8 33.4 93 -0.2 31.6
16:50 1010 29.83 839 24.78 0.9 33.6 91 -0.5 31.2
16:55 1010 29.83 839 24.78 0.9 33.7 89 -0.6 30.9
17:00 1010 29.83 839 24.78 0.9 33.6 89 -0.7 30.7
17:05 1010 29.83 839 24.78 0.8 33.5 89 -0.8 30.6
17:10 1010 29.83 839 24.78 0.8 33.5 88 -0.9 30.3
17:15 1010 29.83 839 24.78 0.7 33.3 89 -0.8 30.5
17:20 1010 29.83 839 24.78 0.7 33.3 90 -0.7 30.7
17:25 1010 29.83 839 24.78 0.8 33.5 88 -0.9 30.4
17:30 1010 29.83 840 24.81 0.7 33.3 90 -0.8 30.6
17:35 1010 29.83 840 24.81 0.7 33.3 89 -0.9 30.4
17:40 1011 29.85 840 24.81 0.8 33.5 89 -0.7 30.7
17:45 1011 29.85 840 24.81 0.9 33.5 89 -0.8 30.6
17:50 1011 29.85 840 24.81 0.8 33.5 88 -0.9 30.4
17:55 1011 29.85 840 24.81 0.9 33.6 88 -0.8 30.5
18:00 1011 29.85 840 24.81 0.7 33.3 90 -0.8 30.6
18:05 1011 29.85 840 24.81 0.5 32.9 92 -0.7 30.8
18:10 1011 29.85 840 24.81 0.4 32.8 92 -0.7 30.7
18:15 1011 29.85 840 24.81 0.5 32.9 92 -0.7 30.7
18:20 1011 29.85 840 24.81 0.6 33.1 92 -0.6 30.9
18:25 1011 29.85 840 24.81 0.6 33 91 -0.8 30.6
18:30 1011 29.85 840 24.81 0.4 32.7 92 -0.8 30.6
18:35 1011 29.85 841 24.83 0.3 32.5 93 -0.8 30.6
18:40 1011 29.85 841 24.83 0.2 32.4 93 -0.8 30.5
18:45 1011 29.85 841 24.83 0.1 32.1 93 -0.9 30.4
18:50 1012 29.88 841 24.83 -0.1 31.8 94 -1 30.3
18:55 1012 29.88 841 24.83 -0.1 31.8 95 -0.9 30.4
19:00 1012 29.88 841 24.83 -0.2 31.7 95 -0.9 30.4
19:05 1012 29.88 841 24.83 -0.4 31.3 95 -1 30.1
19:10 1012 29.88 841 24.83 -0.5 31.2 95 -1.1 30
19:15 1012 29.88 841 24.83 -0.6 31 96 -1.2 29.8
19:20 1012 29.88 841 24.83 -0.7 30.8 96 -1.3 29.7
19:25 1012 29.88 841 24.83 -0.7 30.7 96 -1.3 29.6
19:30 1012 29.88 841 24.83 -0.8 30.6 96 -1.4 29.6
19:35 1012 29.88 841 24.83 -0.8 30.5 95 -1.5 29.3
19:40 1012 29.88 841 24.83 -0.8 30.5 95 -1.5 29.4
19:45 1012 29.88 841 24.83 -0.8 30.5 95 -1.5 29.4
19:50 1012 29.88 842 24.86 -0.8 30.5 95 -1.5 29.3
19:55 1013 29.91 842 24.86 -0.8 30.5 95 -1.5 29.3
20:00 1013 29.91 842 24.86 -0.8 30.5 95 -1.5 29.3
20:05 1013 29.91 842 24.86 -0.8 30.5 96 -1.4 29.4
20:10 1013 29.91 842 24.86 -0.8 30.5 95 -1.5 29.3
20:15 1013 29.91 842 24.86 -0.8 30.5 96 -1.5 29.3
20:20 1013 29.91 842 24.86 -0.9 30.5 95 -1.5 29.3
20:25 1013 29.91 842 24.86 -0.8 30.5 95 -1.5 29.3
20:30 1013 29.91 842 24.86 -0.9 30.4 95 -1.5 29.2
20:35 1013 29.91 842 24.86 -0.9 30.3 94 -1.8 28.8
20:40 1013 29.91 842 24.86 -1 30.3 94 -1.8 28.7
20:45 1013 29.91 843 24.89 -1 30.1 94 -1.9 28.6
20:50 1013 29.91 843 24.89 -1.1 30 94 -1.9 28.5
20:55 1013 29.91 843 24.89 -1.2 29.9 94 -1.9 28.5
21:00 1014 29.94 843 24.89 -1.2 29.9 95 -1.9 28.6
21:05 1014 29.94 843 24.89 -1.2 29.9 95 -1.9 28.7
21:10 1014 29.94 843 24.89 -1.1 29.9 95 -1.8 28.8
21:15 1014 29.94 843 24.89 -1.1 30 95 -1.7 28.9
21:20 1014 29.94 843 24.89 -1.1 30 96 -1.7 28.9
21:25 1014 29.94 843 24.89 -1.1 30.1 95 -1.7 28.9
21:30 1014 29.94 843 24.89 -1.2 29.9 96 -1.8 28.8
21:35 1014 29.94 843 24.89 -1.1 30 96 -1.7 28.9
21:40 1014 29.94 843 24.89 -1.2 29.9 96 -1.8 28.8
21:45 1014 29.94 843 24.89 -1.3 29.7 96 -1.9 28.6
21:50 1014 29.94 843 24.89 -1.3 29.6 96 -1.9 28.5
21:55 1014 29.94 843 24.89 -1.4 29.4 96 -2 28.3
22:00 1014 29.94 843 24.89 -1.5 29.2 96 -2.1 28.2
22:05 1014 29.94 843 24.89 -1.5 29.3 96 -2.1 28.2
22:10 1014 29.94 843 24.89 -1.5 29.2 96 -2.1 28.2
22:15 1014 29.94 843 24.89 -1.6 29.2 96 -2.2 28.1
22:20 1014 29.94 843 24.89 -1.7 29 96 -2.2 28
22:25 1014 29.94 843 24.89 -1.7 28.9 96 -2.3 27.8
22:30 1014 29.94 843 24.89 -1.8 28.8 96 -2.4 27.7
22:35 1014 29.94 844 24.92 -1.8 28.8 95 -2.4 27.6
22:40 1014 29.94 844 24.92 -1.9 28.6 96 -2.5 27.5
22:45 1014 29.94 844 24.92 -1.9 28.6 96 -2.5 27.4
22:50 1014 29.94 844 24.92 -1.9 28.5 96 -2.6 27.4
22:55 1015 29.97 844 24.92 -2 28.4 96 -2.6 27.3
23:00 1015 29.97 844 24.92 -2 28.4 96 -2.6 27.3
23:05 1015 29.97 844 24.92 -2 28.5 96 -2.6 27.4
23:10 1015 29.97 844 24.92 -1.9 28.5 96 -2.6 27.4
23:15 1015 29.97 844 24.92 -2 28.4 95 -2.6 27.2
23:20 1015 29.97 844 24.92 -2.1 28.3 95 -2.7 27.1
23:25 1015 29.97 844 24.92 -2.1 28.2 95 -2.7 27.1
23:30 1015 29.97 844 24.92 -2.1 28.2 96 -2.7 27.1
23:35 1015 29.97 844 24.92 -2.1 28.3 96 -2.7 27.2
23:40 1015 29.97 844 24.92 -2 28.4 95 -2.7 27.2
23:45 1015 29.97 844 24.92 -2.1 28.3 95 -2.7 27.1
23:50 1015 29.97 844 24.92 -2.1 28.3 95 -2.7 27.1
23:55 1015 29.97 844 24.92 -2.1 28.3 96 -2.7 27.1
24:00 1015 29.97 844 24.92 -2.1 28.2 95 -2.7 27.1